Time;durP1;ratioP1;P1;durP2;ratioP2;P2;SDS_P1;SDS_P2;PMS_P1;PMS_P2;Temp;Humidity;BMP_temperature;BMP_pressure;BME280_temperature;BME280_humidity;BME280_pressure;Samples;Min_cycle;Max_cycle;Signal;HPM_P1;HPM_P2
2022/04/22 00:00:38;;;;;;;25.55;16.10;;;26.50;94.30;;;;;;5106630;28;20269;-50
2022/04/22 00:03:06;;;;;;;26.63;17.38;;;26.50;94.40;;;;;;5106444;28;20027;-54
2022/04/22 00:05:34;;;;;;;28.92;14.60;;;26.40;94.30;;;;;;5106438;28;20094;-52
2022/04/22 00:08:01;;;;;;;19.55;13.40;;;26.40;94.40;;;;;;5106385;28;20028;-51
2022/04/22 00:10:28;;;;;;;22.70;14.43;;;26.40;94.40;;;;;;5106408;28;20024;-57
2022/04/22 00:12:55;;;;;;;24.45;14.88;;;26.40;94.40;;;;;;5088788;28;20053;-55
2022/04/22 00:15:22;;;;;;;17.35;12.85;;;26.40;94.40;;;;;;5107280;28;20047;-53
2022/04/22 00:17:49;;;;;;;17.63;12.23;;;26.40;94.40;;;;;;5106764;28;20074;-53
2022/04/22 00:20:20;;;;;;;15.20;12.02;;;26.40;94.40;;;;;;5106896;28;20040;-52
2022/04/22 00:22:47;;;;;;;18.05;12.63;;;26.40;94.40;;;;;;5089158;28;20058;-50
2022/04/22 00:25:15;;;;;;;21.67;12.25;;;26.30;94.30;;;;;;5106953;28;20087;-57
2022/04/22 00:27:42;;;;;;;20.30;13.00;;;26.40;94.50;;;;;;5106707;28;20091;-52
2022/04/22 00:30:11;;;;;;;16.48;13.18;;;26.40;94.30;;;;;;5107317;28;20032;-52
2022/04/22 00:32:38;;;;;;;14.60;12.98;;;26.40;94.40;;;;;;5106962;28;20077;-51
2022/04/22 00:35:06;;;;;;;18.27;13.80;;;26.40;94.50;;;;;;5106530;28;20058;-54
2022/04/22 00:37:34;;;;;;;20.23;15.93;;;26.40;94.40;;;;;;5106116;28;20024;-51
2022/04/22 00:40:00;;;;;;;18.33;14.23;;;26.40;94.50;;;;;;5106341;28;20028;-52
2022/04/22 00:42:28;;;;;;;18.98;14.65;;;26.40;94.40;;;;;;5105965;28;20016;-47
2022/04/22 00:44:56;;;;;;;17.08;13.98;;;26.40;94.50;;;;;;5106718;28;20028;-49
2022/04/22 00:47:23;;;;;;;18.80;13.35;;;26.40;94.50;;;;;;5106407;28;20324;-50
2022/04/22 00:49:50;;;;;;;21.60;14.60;;;26.30;94.50;;;;;;5106545;28;20028;-46
2022/04/22 00:52:19;;;;;;;16.48;13.18;;;26.30;94.60;;;;;;5105936;28;20027;-49
2022/04/22 00:54:47;;;;;;;19.60;12.85;;;26.30;94.50;;;;;;5106090;28;20055;-51
2022/04/22 00:57:15;;;;;;;17.67;12.68;;;26.30;94.50;;;;;;5105657;28;20020;-51
2022/04/22 00:59:42;;;;;;;16.33;12.85;;;26.30;94.50;;;;;;5105989;28;20099;-47
2022/04/22 01:02:08;;;;;;;15.95;12.90;;;26.30;94.60;;;;;;5105615;28;20073;-55
2022/04/22 01:10:07;;;;;;;17.10;12.80;;;26.30;94.40;;;;;;5105953;28;20035;-48
2022/04/22 01:12:34;;;;;;;17.80;13.40;;;26.30;94.30;;;;;;5105730;28;20036;-47
2022/04/22 01:15:01;;;;;;;17.63;12.95;;;26.30;94.30;;;;;;5105790;28;20088;-52
2022/04/22 01:17:29;;;;;;;19.08;12.77;;;26.30;94.20;;;;;;5105244;28;20051;-48
2022/04/22 01:19:59;;;;;;;15.00;12.70;;;26.30;94.20;;;;;;5105162;28;20024;-52
2022/04/22 01:22:27;;;;;;;18.42;11.80;;;26.30;94.30;;;;;;5105159;28;20020;-48
2022/04/22 01:24:59;;;;;;;13.98;11.00;;;26.30;94.30;;;;;;5105600;28;20293;-52
2022/04/22 01:27:29;;;;;;;;;;;26.30;94.20;;;;;;5105629;28;20324;-47
2022/04/22 01:29:57;;;;;;;14.35;10.98;;;26.30;94.20;;;;;;5105313;28;20164;-52
2022/04/22 01:32:27;;;;;;;13.30;10.85;;;26.20;94.10;;;;;;5105107;28;20020;-53
2022/04/22 01:34:54;;;;;;;15.88;11.30;;;26.20;94.10;;;;;;5105463;28;20032;-56
2022/04/22 01:37:20;;;;;;;16.90;12.05;;;26.20;94.10;;;;;;5104880;28;20048;-56
2022/04/22 01:39:47;;;;;;;16.80;11.00;;;26.20;94.10;;;;;;5105058;28;20300;-55
2022/04/22 01:42:14;;;;;;;16.50;11.38;;;26.20;94.10;;;;;;5097633;28;20058;-49
2022/04/22 01:44:41;;;;;;;15.02;11.25;;;26.10;94.20;;;;;;5086918;28;20025;-47
2022/04/22 01:47:08;;;;;;;14.70;11.27;;;26.10;94.50;;;;;;5084416;28;20048;-48
2022/04/22 01:49:35;;;;;;;15.85;10.77;;;26.10;94.40;;;;;;5084101;28;20036;-48
2022/04/22 01:52:01;;;;;;;19.45;10.50;;;26.10;94.40;;;;;;5095117;28;20015;-47
2022/04/22 01:54:28;;;;;;;15.63;10.50;;;26.10;94.30;;;;;;5103496;28;20063;-47
2022/04/22 01:56:55;;;;;;;13.75;9.95;;;26.10;94.20;;;;;;5100503;28;20028;-53
2022/04/22 01:59:21;;;;;;;16.45;10.00;;;26.10;94.20;;;;;;5103412;28;20020;-51
2022/04/22 02:01:48;;;;;;;18.90;9.93;;;26.10;94.10;;;;;;5103403;28;20062;-53
2022/04/22 02:04:15;;;;;;;19.08;10.60;;;26.10;94.10;;;;;;5100873;28;20101;-53
2022/04/22 02:06:41;;;;;;;17.45;10.35;;;26.10;94.00;;;;;;5096175;28;20024;-60
2022/04/22 02:09:10;;;;;;;17.55;9.18;;;26.10;94.00;;;;;;5102984;28;20031;-53
2022/04/22 02:11:36;;;;;;;12.23;9.15;;;26.10;94.00;;;;;;5093719;28;20081;-54
2022/04/22 02:14:03;;;;;;;16.83;8.48;;;26.10;93.90;;;;;;5102338;28;20094;-52
2022/04/22 02:16:29;;;;;;;15.60;9.13;;;26.10;93.80;;;;;;5102976;28;20062;-52
2022/04/22 02:18:57;;;;;;;11.80;8.48;;;26.10;93.90;;;;;;5103168;28;20032;-50
2022/04/22 02:21:24;;;;;;;13.77;8.07;;;26.10;93.90;;;;;;5101274;28;20023;-55
2022/04/22 02:23:51;;;;;;;14.02;8.43;;;26.00;93.80;;;;;;5100398;28;20020;-49
2022/04/22 02:26:17;;;;;;;10.52;8.20;;;26.00;93.90;;;;;;5102152;28;20034;-50
2022/04/22 02:28:44;;;;;;;13.20;8.90;;;26.00;93.90;;;;;;5103513;28;20024;-53
2022/04/22 02:31:12;;;;;;;13.85;8.70;;;26.00;93.90;;;;;;5097198;28;20024;-48
2022/04/22 02:33:41;;;;;;;13.38;8.52;;;26.00;93.90;;;;;;5083150;28;20036;-51
2022/04/22 02:36:10;;;;;;;14.45;8.82;;;26.00;94.00;;;;;;5083095;28;20024;-52
2022/04/22 02:38:37;;;;;;;13.38;8.13;;;26.00;93.90;;;;;;5091400;28;20314;-55
2022/04/22 02:46:35;;;;;;;17.48;7.80;;;26.00;94.00;;;;;;5082905;28;20082;-51
2022/04/22 02:49:02;;;;;;;14.38;7.28;;;25.90;93.90;;;;;;5083326;28;20340;-54
2022/04/22 02:51:29;;;;;;;11.73;7.07;;;25.90;94.00;;;;;;5083360;28;20074;-52
2022/04/22 02:53:56;;;;;;;12.05;6.22;;;25.90;93.90;;;;;;5083441;28;20029;-57
2022/04/22 02:56:24;;;;;;;10.85;5.63;;;25.90;93.80;;;;;;5082975;28;20056;-52
2022/04/22 02:58:51;;;;;;;11.75;5.70;;;25.90;93.50;;;;;;5083751;28;20033;-50
2022/04/22 03:01:18;;;;;;;9.88;5.22;;;25.90;93.40;;;;;;5083911;28;20013;-53
2022/04/22 03:03:46;;;;;;;12.10;5.35;;;25.90;93.40;;;;;;5087445;28;20094;-56
2022/04/22 03:06:13;;;;;;;11.60;5.20;;;25.90;93.30;;;;;;5087349;28;20082;-55
2022/04/22 03:08:40;;;;;;;8.05;5.07;;;25.90;93.40;;;;;;5087216;28;20236;-54
2022/04/22 03:11:06;;;;;;;25.60;17.35;;;25.90;93.30;;;;;;5089806;28;20020;-51
2022/04/22 03:13:33;;;;;;;82.65;59.85;;;25.90;93.30;;;;;;5127998;28;20039;-58
2022/04/22 03:16:00;;;;;;;22.75;15.43;;;25.90;93.50;;;;;;5104191;28;20055;-58
2022/04/22 03:18:27;;;;;;;17.35;9.88;;;25.90;93.40;;;;;;5087614;28;20081;-57
2022/04/22 03:20:54;;;;;;;16.30;9.18;;;25.90;93.30;;;;;;5087115;28;20032;-59
2022/04/22 03:23:21;;;;;;;16.73;7.25;;;25.90;93.30;;;;;;5091705;28;20012;-56
2022/04/22 03:25:49;;;;;;;10.60;6.63;;;25.90;93.20;;;;;;5100655;28;20027;-59
2022/04/22 03:28:16;;;;;;;10.07;5.90;;;25.90;93.40;;;;;;5103808;28;20066;-65
2022/04/22 03:30:42;;;;;;;10.40;5.72;;;25.90;93.50;;;;;;5089250;28;20024;-56
2022/04/22 03:33:09;;;;;;;9.07;5.60;;;25.90;93.50;;;;;;5106972;28;20039;-56
2022/04/22 03:35:35;;;;;;;12.13;5.80;;;25.90;93.60;;;;;;5107110;28;20028;-55
2022/04/22 03:38:03;;;;;;;10.82;5.65;;;25.90;93.60;;;;;;5106954;28;20019;-58
2022/04/22 03:40:30;;;;;;;11.20;5.30;;;25.90;93.70;;;;;;5107002;28;20016;-60
2022/04/22 03:42:56;;;;;;;16.23;6.20;;;25.80;93.60;;;;;;5106048;28;20026;-52
2022/04/22 03:45:23;;;;;;;50.22;45.33;;;25.80;93.70;;;;;;5106681;28;20284;-56
2022/04/22 03:47:49;;;;;;;81.10;73.03;;;25.90;93.80;;;;;;5106443;28;20047;-55
2022/04/22 03:50:16;;;;;;;197.45;180.77;;;25.80;93.80;;;;;;5106764;28;20320;-52
2022/04/22 03:52:43;;;;;;;39.08;34.80;;;25.90;93.80;;;;;;5106881;28;20058;-54
2022/04/22 03:55:10;;;;;;;35.40;31.25;;;25.80;93.80;;;;;;5106008;28;20044;-48
2022/04/22 04:00:21;;;;;;;15.93;10.65;;;25.90;94.00;;;;;;5107712;28;20127;-52
2022/04/22 04:02:48;;;;;;;13.10;9.55;;;25.80;93.70;;;;;;5111526;28;20024;-54
2022/04/22 04:05:16;;;;;;;17.15;8.98;;;25.80;93.70;;;;;;5120492;28;20027;-48
2022/04/22 04:07:44;;;;;;;13.82;7.50;;;25.80;93.70;;;;;;5126754;28;20088;-48
2022/04/22 04:18:45;;;;;;;15.73;7.20;;;25.80;93.80;;;;;;5120036;28;20074;-53
2022/04/22 04:23:57;;;;;;;11.73;6.43;;;25.80;94.10;;;;;;5126882;28;20197;-53
2022/04/22 04:26:25;;;;;;;12.77;6.05;;;25.80;93.90;;;;;;5126641;28;20108;-53
2022/04/22 04:28:53;;;;;;;12.10;6.05;;;25.80;93.90;;;;;;5126525;28;20047;-52
2022/04/22 04:31:20;;;;;;;10.20;5.47;;;25.80;93.90;;;;;;5126613;28;20216;-63
2022/04/22 04:33:49;;;;;;;13.60;6.13;;;25.80;93.90;;;;;;5126465;28;20040;-54
2022/04/22 04:36:15;;;;;;;8.88;5.68;;;25.80;93.90;;;;;;5126123;28;20042;-52
2022/04/22 04:38:43;;;;;;;8.73;6.03;;;25.80;93.80;;;;;;5136563;27;20060;-53
2022/04/22 04:41:12;;;;;;;10.90;5.70;;;25.80;93.90;;;;;;5144672;27;20031;-61
2022/04/22 04:43:39;;;;;;;11.93;5.85;;;25.80;93.90;;;;;;5117110;28;20028;-54
2022/04/22 04:46:06;;;;;;;9.77;5.70;;;25.80;93.90;;;;;;5106083;28;20211;-50
2022/04/22 04:48:36;;;;;;;11.40;5.75;;;25.80;93.80;;;;;;5105881;28;20044;-56
2022/04/22 04:51:03;;;;;;;11.93;5.07;;;25.80;93.70;;;;;;5137061;27;20055;-50
2022/04/22 04:53:29;;;;;;;10.43;5.30;;;25.80;93.60;;;;;;5146711;27;20031;-56
2022/04/22 04:55:56;;;;;;;11.20;4.82;;;25.70;93.50;;;;;;5146461;27;20046;-47
2022/04/22 04:58:22;;;;;;;8.20;4.95;;;25.70;93.40;;;;;;5146485;27;20031;-47
2022/04/22 05:00:49;;;;;;;11.05;6.13;;;25.70;93.50;;;;;;5146601;27;20078;-49
2022/04/22 05:03:16;;;;;;;10.50;6.32;;;25.70;93.60;;;;;;5143309;27;20019;-54
2022/04/22 05:05:43;;;;;;;10.20;6.13;;;25.70;93.60;;;;;;5116728;28;20039;-54
2022/04/22 05:08:10;;;;;;;13.20;6.93;;;25.70;93.60;;;;;;5105380;28;20020;-50
2022/04/22 05:10:37;;;;;;;13.00;7.80;;;25.70;93.60;;;;;;5105398;28;20068;-51
2022/04/22 05:13:04;;;;;;;13.50;7.30;;;25.70;93.50;;;;;;5104904;28;20024;-48
2022/04/22 05:15:33;;;;;;;12.05;8.57;;;25.70;93.50;;;;;;5117959;28;20018;-52
2022/04/22 05:18:02;;;;;;;15.73;11.70;;;25.70;93.60;;;;;;5146106;27;20027;-48
2022/04/22 05:20:29;;;;;;;73.68;65.95;;;25.70;93.60;;;;;;5146041;27;20390;-57
2022/04/22 05:22:56;;;;;;;79.47;71.68;;;25.70;93.70;;;;;;5146399;27;20367;-47
2022/04/22 05:25:23;;;;;;;44.30;39.67;;;25.70;93.80;;;;;;5128359;27;20035;-50
2022/04/22 05:27:50;;;;;;;40.75;36.45;;;25.70;93.80;;;;;;5124877;28;20132;-50
2022/04/22 05:33:03;;;;;;;28.30;25.13;;;25.70;93.90;;;;;;5125113;28;20037;-52
2022/04/22 05:35:30;;;;;;;18.80;16.83;;;25.70;93.90;;;;;;5104751;28;20027;-54
2022/04/22 05:38:01;;;;;;;23.42;18.50;;;25.70;94.00;;;;;;5104933;28;20250;-52
2022/04/22 05:40:36;;;;;;;26.23;16.48;;;25.70;94.00;;;;;;5113056;28;20141;-52
2022/04/22 05:43:06;;;;;;;19.35;11.63;;;25.70;93.90;;;;;;5124911;28;20023;-51
2022/04/22 05:45:32;;;;;;;17.17;11.32;;;25.70;94.30;;;;;;5124838;28;20335;-49
2022/04/22 05:48:00;;;;;;;13.25;8.80;;;25.60;94.00;;;;;;5124894;28;20030;-47
2022/04/22 05:50:27;;;;;;;10.07;7.95;;;25.60;94.10;;;;;;5114901;28;20051;-48
2022/04/22 05:52:55;;;;;;;10.85;7.95;;;25.60;94.10;;;;;;5095158;28;20024;-50
2022/04/22 05:55:24;;;;;;;16.63;8.32;;;25.60;94.00;;;;;;5084281;28;20040;-51
2022/04/22 05:57:53;;;;;;;18.98;7.20;;;25.60;94.10;;;;;;5084182;28;20032;-52
2022/04/22 06:00:23;;;;;;;11.48;6.35;;;25.70;94.30;;;;;;5107033;28;20374;-58
2022/04/22 06:02:52;;;;;;;12.93;7.22;;;25.60;94.20;;;;;;5090925;28;20032;-53
2022/04/22 06:05:23;;;;;;;14.65;7.22;;;25.50;94.40;;;;;;5104197;28;20036;-49
2022/04/22 06:10:35;;;;;;;10.00;6.45;;;25.50;94.20;;;;;;5104686;28;20038;-47
2022/04/22 06:13:02;;;;;;;12.90;5.72;;;25.50;94.40;;;;;;5107748;28;20223;-51
2022/04/22 06:15:30;;;;;;;10.80;5.40;;;25.50;94.40;;;;;;5124636;28;20028;-51
2022/04/22 06:17:58;;;;;;;12.48;6.20;;;25.50;94.40;;;;;;5124536;28;20072;-47
2022/04/22 06:20:25;;;;;;;15.23;5.65;;;25.60;94.40;;;;;;5124291;28;20066;-52
2022/04/22 06:22:52;;;;;;;12.25;5.60;;;25.60;94.70;;;;;;5124405;28;20023;-54
2022/04/22 06:25:20;;;;;;;8.80;5.00;;;25.60;94.50;;;;;;5124965;28;20020;-54
2022/04/22 06:27:47;;;;;;;10.70;5.57;;;25.60;94.50;;;;;;5124270;28;20024;-49
2022/04/22 06:30:16;;;;;;;10.32;5.13;;;25.60;94.50;;;;;;5124832;28;20085;-56
2022/04/22 06:32:45;;;;;;;13.02;5.15;;;25.50;94.50;;;;;;5124407;28;20327;-51
2022/04/22 06:35:13;;;;;;;11.82;5.15;;;25.60;94.50;;;;;;5124773;28;20039;-50
2022/04/22 06:37:48;;;;;;;11.65;5.55;;;25.50;94.60;;;;;;5127059;28;20308;-50
2022/04/22 06:45:49;;;;;;;8.68;5.35;;;25.50;94.40;;;;;;5128494;28;20232;-49
2022/04/22 06:48:30;;;;;;;11.55;5.50;;;25.50;94.40;;;;;;5128392;28;20251;-51
2022/04/22 06:50:58;;;;;;;11.32;4.70;;;25.50;94.30;;;;;;5128453;28;20023;-49
2022/04/22 06:53:26;;;;;;;8.70;5.10;;;25.50;94.30;;;;;;5128534;28;20032;-48
2022/04/22 06:55:54;;;;;;;12.13;5.18;;;25.50;94.10;;;;;;5128188;28;20106;-53
2022/04/22 06:58:21;;;;;;;11.70;5.22;;;25.50;94.10;;;;;;5128244;28;20039;-57
2022/04/22 07:00:49;;;;;;;10.32;4.82;;;25.50;94.10;;;;;;5128282;27;20030;-50
2022/04/22 07:03:17;;;;;;;12.85;5.30;;;25.50;94.00;;;;;;5128068;28;20039;-57
2022/04/22 07:05:47;;;;;;;10.18;4.80;;;25.40;94.10;;;;;;5128087;28;20129;-55
2022/04/22 07:08:14;;;;;;;17.20;5.57;;;25.50;94.10;;;;;;5128013;28;20094;-56
2022/04/22 07:10:42;;;;;;;11.35;5.30;;;25.50;94.20;;;;;;5128108;28;20024;-49
2022/04/22 07:13:10;;;;;;;10.73;5.25;;;25.50;94.20;;;;;;5127768;28;20022;-51
2022/04/22 07:15:38;;;;;;;11.02;4.97;;;25.50;94.20;;;;;;5128164;28;20024;-54
2022/04/22 07:18:06;;;;;;;14.07;5.47;;;25.50;94.20;;;;;;5127736;28;20019;-48
2022/04/22 07:20:33;;;;;;;11.88;5.47;;;25.50;94.30;;;;;;5127965;28;20026;-55
2022/04/22 07:23:00;;;;;;;11.88;5.82;;;25.50;94.40;;;;;;5127708;28;20312;-49
2022/04/22 07:25:28;;;;;;;15.27;5.20;;;25.40;94.40;;;;;;5128156;28;20036;-48
2022/04/22 07:27:55;;;;;;;11.20;5.40;;;25.40;94.40;;;;;;5127865;28;20019;-53
2022/04/22 07:30:23;;;;;;;10.50;4.85;;;25.40;94.40;;;;;;5128262;28;20058;-57
2022/04/22 07:32:51;;;;;;;8.35;5.03;;;25.40;94.50;;;;;;5127540;28;20205;-51
2022/04/22 07:35:19;;;;;;;13.10;5.18;;;25.40;94.60;;;;;;5128035;28;20320;-50
2022/04/22 07:37:49;;;;;;;11.73;5.20;;;25.40;94.60;;;;;;5127541;28;20039;-54
2022/04/22 07:40:19;;;;;;;10.90;5.13;;;25.40;94.60;;;;;;5127865;28;20055;-57
2022/04/22 07:48:20;;;;;;;17.08;5.88;;;25.40;94.60;;;;;;5127248;28;20030;-53
2022/04/22 07:50:48;;;;;;;12.07;5.60;;;25.40;94.60;;;;;;5127108;28;20086;-49
2022/04/22 07:53:19;;;;;;;13.93;5.28;;;25.40;94.60;;;;;;5127168;28;20028;-54
2022/04/22 07:55:47;;;;;;;14.38;5.22;;;25.40;94.70;;;;;;5127000;28;20111;-46
2022/04/22 07:58:16;;;;;;;13.35;5.00;;;25.40;94.60;;;;;;5127072;28;20051;-53
2022/04/22 08:00:47;;;;;;;12.57;5.05;;;25.40;94.50;;;;;;5127049;28;20028;-51
2022/04/22 08:03:17;;;;;;;11.93;5.07;;;25.40;94.40;;;;;;5127025;28;20016;-53
2022/04/22 08:05:44;;;;;;;10.02;4.78;;;25.40;94.50;;;;;;5126905;28;20342;-50
2022/04/22 08:08:11;;;;;;;14.00;5.03;;;25.30;94.50;;;;;;5126913;28;20099;-51
2022/04/22 08:10:38;;;;;;;10.20;4.97;;;25.40;94.50;;;;;;5127087;28;20061;-48
2022/04/22 08:13:05;;;;;;;9.98;4.97;;;25.40;94.40;;;;;;5126625;28;20031;-51
2022/04/22 08:15:33;;;;;;;12.25;4.95;;;25.40;94.40;;;;;;5127012;28;20224;-49
2022/04/22 08:18:01;;;;;;;6.60;4.30;;;25.40;94.40;;;;;;5126672;28;20016;-49
2022/04/22 08:20:30;;;;;;;10.23;4.65;;;25.40;94.40;;;;;;5126488;28;20104;-54
2022/04/22 08:22:57;;;;;;;6.05;4.43;;;25.40;94.30;;;;;;5126645;28;20080;-55
2022/04/22 08:25:24;;;;;;;13.60;5.18;;;25.40;94.30;;;;;;5127270;28;20020;-50
2022/04/22 08:27:51;;;;;;;9.10;4.65;;;25.40;94.30;;;;;;5126401;28;20103;-50
2022/04/22 08:30:18;;;;;;;10.57;5.13;;;25.40;94.30;;;;;;5127113;28;20097;-52
2022/04/22 08:32:45;;;;;;;15.80;5.15;;;25.30;94.40;;;;;;5126694;28;20072;-47
2022/04/22 08:35:11;;;;;;;13.02;4.72;;;25.40;94.40;;;;;;5126742;28;20039;-53
2022/04/22 08:37:38;;;;;;;11.90;4.55;;;25.40;94.40;;;;;;5126185;28;20070;-47
2022/04/22 08:40:08;;;;;;;13.95;4.60;;;25.40;94.50;;;;;;5126643;28;20027;-56
2022/04/22 08:42:39;;;;;;;11.23;5.28;;;25.40;94.50;;;;;;5125977;28;20094;-52
2022/04/22 08:45:07;;;;;;;10.82;4.43;;;25.40;94.50;;;;;;5126615;27;20023;-53
2022/04/22 08:50:19;;;;;;;9.48;4.57;;;25.40;94.40;;;;;;5126705;28;20026;-48
2022/04/22 08:53:04;;;;;;;13.98;4.53;;;25.30;94.40;;;;;;5126047;28;20236;-49
2022/04/22 08:55:32;;;;;;;10.23;4.60;;;25.30;94.40;;;;;;5125795;28;20047;-53
2022/04/22 08:58:00;;;;;;;11.15;4.65;;;25.30;94.40;;;;;;5126081;28;20043;-48
2022/04/22 09:00:30;;;;;;;13.77;4.80;;;25.30;94.30;;;;;;5125818;28;20087;-51
2022/04/22 09:02:58;;;;;;;14.13;4.80;;;25.30;94.40;;;;;;5125966;28;20061;-56
2022/04/22 09:05:29;;;;;;;14.30;4.80;;;25.30;94.40;;;;;;5126253;28;20039;-57
2022/04/22 09:07:56;;;;;;;12.00;4.65;;;25.30;94.40;;;;;;5125740;28;20308;-50
2022/04/22 09:10:23;;;;;;;7.97;4.40;;;25.30;94.40;;;;;;5126340;28;20220;-53
2022/04/22 09:12:55;;;;;;;11.75;4.72;;;25.30;94.40;;;;;;5125608;28;20038;-52
2022/04/22 09:15:27;;;;;;;12.32;5.22;;;25.30;94.40;;;;;;5126272;28;20304;-52
2022/04/22 09:17:57;;;;;;;10.10;4.93;;;25.30;94.30;;;;;;5125602;28;20031;-50
2022/04/22 09:20:30;;;;;;;11.63;4.93;;;25.30;94.30;;;;;;5125871;28;20028;-52
2022/04/22 09:22:57;;;;;;;15.10;4.85;;;25.30;94.40;;;;;;5125551;28;20212;-55
2022/04/22 09:25:28;;;;;;;10.43;4.82;;;25.30;94.40;;;;;;5126029;28;20020;-51
2022/04/22 09:28:08;;;;;;;11.88;4.47;;;25.30;94.40;;;;;;5125459;28;20079;-58
2022/04/22 09:30:35;;;;;;;12.07;4.70;;;25.30;94.40;;;;;;5125520;28;20211;-53
2022/04/22 09:33:02;;;;;;;13.20;4.72;;;25.30;94.40;;;;;;5125163;28;20066;-52
2022/04/22 09:35:29;;;;;;;8.68;4.07;;;25.30;94.40;;;;;;5125427;28;20023;-49
2022/04/22 09:43:33;;;;;;;12.00;4.30;;;25.30;94.40;;;;;;5125446;28;20073;-56
2022/04/22 09:46:02;;;;;;;13.27;4.38;;;25.30;94.40;;;;;;5125309;28;20023;-57
2022/04/22 09:48:47;;;;;;;8.32;4.53;;;25.30;94.50;;;;;;5125078;28;20331;-48
2022/04/22 09:51:33;;;;;;;11.95;5.00;;;25.30;94.50;;;;;;5124974;28;20323;-55
2022/04/22 09:54:09;;;;;;;12.48;4.88;;;25.30;94.80;;;;;;5125129;28;20040;-52
2022/04/22 09:56:38;;;;;;;16.95;5.03;;;25.30;94.70;;;;;;5124754;28;20278;-50
2022/04/22 09:59:23;;;;;;;14.15;4.90;;;25.30;94.60;;;;;;5125261;28;20028;-54
2022/04/22 10:01:52;;;;;;;13.23;4.97;;;25.30;94.70;;;;;;5124740;28;20384;-50
2022/04/22 10:04:20;;;;;;;18.77;5.50;;;25.30;94.70;;;;;;5125034;28;20039;-54
2022/04/22 10:06:47;;;;;;;13.88;4.50;;;25.30;94.70;;;;;;5124758;28;20027;-55
2022/04/22 10:09:15;;;;;;;13.88;4.40;;;25.30;94.60;;;;;;5124964;28;20015;-56
2022/04/22 10:11:52;;;;;;;10.65;4.28;;;25.30;94.60;;;;;;5123891;28;20133;-52
2022/04/22 10:14:38;;;;;;;8.82;4.60;;;25.30;94.70;;;;;;5125043;28;20031;-55
2022/04/22 10:17:05;;;;;;;10.98;4.90;;;25.30;94.70;;;;;;5124315;28;20031;-51
2022/04/22 10:19:33;;;;;;;8.60;5.30;;;25.20;94.80;;;;;;5124422;28;20027;-52
2022/04/22 10:22:07;;;;;;;13.90;4.90;;;25.20;94.80;;;;;;5124683;28;20041;-53
2022/04/22 10:24:34;;;;;;;14.52;5.00;;;25.20;94.70;;;;;;5124811;27;20379;-50
2022/04/22 10:27:02;;;;;;;12.95;5.47;;;25.20;94.70;;;;;;5124668;28;20247;-48
2022/04/22 10:29:31;;;;;;;10.60;5.47;;;25.20;94.70;;;;;;5124812;28;20089;-49
2022/04/22 10:31:58;;;;;;;10.10;5.13;;;25.20;94.70;;;;;;5124258;28;20023;-55
2022/04/22 10:34:45;;;;;;;16.00;5.28;;;25.20;94.60;;;;;;5124846;28;20066;-50
2022/04/22 10:37:28;;;;;;;10.73;5.00;;;25.30;94.70;;;;;;5124151;28;20032;-55
2022/04/22 10:39:59;;;;;;;14.73;5.50;;;25.30;94.70;;;;;;5124981;28;20119;-59
2022/04/22 10:42:34;;;;;;;10.82;5.95;;;25.30;94.80;;;;;;5124162;28;20308;-55
2022/04/22 10:47:49;;;;;;;12.73;6.00;;;25.30;94.80;;;;;;5124159;28;20035;-50
2022/04/22 10:50:37;;;;;;;17.52;6.40;;;25.20;94.80;;;;;;5124680;28;20028;-50
2022/04/22 10:53:25;;;;;;;12.07;6.75;;;25.20;94.80;;;;;;5123970;28;20031;-48
2022/04/22 10:55:52;;;;;;;12.70;6.57;;;25.20;94.80;;;;;;5123846;28;20051;-51
2022/04/22 10:58:21;;;;;;;10.88;6.30;;;25.20;94.80;;;;;;5124231;28;20027;-53
2022/04/22 11:00:54;;;;;;;13.98;7.40;;;25.20;94.90;;;;;;5124019;28;20090;-53
2022/04/22 11:03:21;;;;;;;19.00;8.80;;;25.20;94.90;;;;;;5124447;28;20019;-50
2022/04/22 11:05:49;;;;;;;13.60;7.93;;;25.30;95.00;;;;;;5124115;28;20027;-50
2022/04/22 11:08:29;;;;;;;14.40;8.20;;;25.20;95.10;;;;;;5124236;28;20071;-55
2022/04/22 11:10:56;;;;;;;18.38;6.82;;;25.20;95.10;;;;;;5123704;28;20255;-53
2022/04/22 11:13:31;;;;;;;15.90;7.40;;;25.20;95.00;;;;;;5124200;28;20019;-49
2022/04/22 11:16:24;;;;;;;15.30;7.95;;;25.20;95.00;;;;;;5123777;28;20032;-50
2022/04/22 11:19:19;;;;;;;18.75;7.70;;;25.20;95.10;;;;;;5111055;28;20032;-51
2022/04/22 11:21:53;;;;;;;25.58;6.88;;;25.20;95.10;;;;;;5112328;28;20044;-47
2022/04/22 11:24:27;;;;;;;16.08;8.90;;;25.20;95.20;;;;;;5127707;28;20026;-48
2022/04/22 11:27:11;;;;;;;16.55;7.43;;;25.30;95.20;;;;;;5127887;28;20043;-49
2022/04/22 11:29:38;;;;;;;18.67;8.63;;;25.30;95.30;;;;;;5120669;28;20028;-48
2022/04/22 11:32:21;;;;;;;18.65;9.13;;;25.30;95.30;;;;;;5121751;28;20063;-57
2022/04/22 11:35:08;;;;;;;14.80;8.52;;;25.30;95.20;;;;;;5128280;28;20245;-49
2022/04/22 11:37:37;;;;;;;15.18;9.57;;;25.30;95.20;;;;;;5125563;28;20265;-50
2022/04/22 11:40:08;;;;;;;19.67;9.73;;;25.30;95.20;;;;;;5126146;28;20124;-52
2022/04/22 11:42:44;;;;;;;15.90;8.90;;;25.30;95.20;;;;;;5125714;28;20097;-50
2022/04/22 11:45:14;;;;;;;18.08;9.40;;;25.30;95.20;;;;;;5126102;28;20672;-52
2022/04/22 11:47:41;;;;;;;14.90;9.43;;;25.30;95.20;;;;;;5125608;28;20030;-52
2022/04/22 11:50:09;;;;;;;14.88;8.52;;;25.30;95.20;;;;;;5126317;28;20016;-49
2022/04/22 11:52:36;;;;;;;16.17;9.05;;;25.30;95.10;;;;;;5127357;28;20031;-51
2022/04/22 11:55:05;;;;;;;11.85;7.47;;;25.30;94.90;;;;;;5127479;28;20043;-61
2022/04/22 11:57:37;;;;;;;13.65;8.15;;;25.30;94.80;;;;;;5127245;28;20085;-53
2022/04/22 12:05:51;;;;;;;13.15;7.13;;;25.40;94.90;;;;;;5127007;28;20085;-53
2022/04/22 12:08:18;;;;;;;16.52;8.20;;;25.40;94.80;;;;;;5127015;28;20316;-51
2022/04/22 12:10:47;;;;;;;11.07;7.43;;;25.40;94.80;;;;;;5127065;28;20118;-46
2022/04/22 12:13:14;;;;;;;11.32;7.22;;;25.40;94.70;;;;;;5126870;28;20312;-54
2022/04/22 12:15:43;;;;;;;13.77;7.85;;;25.40;94.80;;;;;;5126934;28;20259;-51
2022/04/22 12:18:32;;;;;;;10.07;6.88;;;25.40;94.90;;;;;;5126503;28;20031;-51
2022/04/22 12:20:59;;;;;;;10.75;7.40;;;25.40;94.80;;;;;;5127230;28;20096;-55
2022/04/22 12:23:52;;;;;;;12.68;8.10;;;25.40;94.80;;;;;;5126591;28;20072;-52
2022/04/22 12:26:27;;;;;;;12.93;7.72;;;25.50;95.00;;;;;;5123056;28;20027;-55
2022/04/22 12:29:06;;;;;;;11.02;7.60;;;25.40;94.90;;;;;;5126808;28;20055;-51
2022/04/22 12:31:37;;;;;;;11.77;7.97;;;25.40;94.90;;;;;;5126734;28;20032;-48
2022/04/22 12:34:09;;;;;;;12.27;8.05;;;25.40;94.90;;;;;;5124131;28;20035;-48
2022/04/22 12:36:56;;;;;;;13.77;7.72;;;25.40;95.00;;;;;;5116220;28;20016;-50
2022/04/22 12:39:42;;;;;;;14.02;8.43;;;25.50;94.90;;;;;;5085986;28;20033;-56
2022/04/22 12:42:18;;;;;;;14.13;7.57;;;25.50;94.90;;;;;;5085742;28;20013;-50
2022/04/22 12:53:29;;;;;;;9.60;7.93;;;25.50;94.80;;;;;;5085795;28;20071;-46
2022/04/22 12:56:06;;;;;;;10.13;7.38;;;25.50;94.90;;;;;;5085396;28;20045;-46
2022/04/22 12:58:32;;;;;;;10.65;7.68;;;25.50;94.80;;;;;;5085388;28;20024;-54
2022/04/22 13:01:02;;;;;;;11.30;8.05;;;25.60;94.90;;;;;;5085843;28;20096;-46
2022/04/22 13:03:37;;;;;;;18.42;7.22;;;25.50;94.80;;;;;;5085315;28;20085;-49
2022/04/22 13:06:05;;;;;;;11.43;7.28;;;25.60;94.60;;;;;;5085676;28;20119;-51
2022/04/22 13:08:31;;;;;;;13.23;6.38;;;25.60;94.60;;;;;;5085094;28;20026;-49
2022/04/22 13:11:02;;;;;;;10.60;6.65;;;25.60;94.50;;;;;;5085346;28;20253;-52
2022/04/22 13:13:28;;;;;;;12.50;6.75;;;25.60;94.60;;;;;;5085305;28;20028;-52
2022/04/22 13:15:55;;;;;;;11.32;6.50;;;25.60;94.60;;;;;;5085017;28;20023;-49
2022/04/22 13:18:21;;;;;;;10.88;6.78;;;25.60;94.60;;;;;;5084895;28;20024;-48
2022/04/22 13:20:51;;;;;;;12.93;5.78;;;25.60;94.70;;;;;;5085109;28;20255;-47
2022/04/22 13:23:17;;;;;;;11.00;6.30;;;25.70;94.70;;;;;;5107704;28;20064;-53
2022/04/22 13:25:44;;;;;;;10.85;6.35;;;25.70;95.00;;;;;;5125515;28;20020;-49
2022/04/22 13:28:11;;;;;;;9.88;6.03;;;25.70;95.20;;;;;;5125475;28;20039;-52
2022/04/22 13:30:38;;;;;;;13.50;6.57;;;25.70;95.10;;;;;;5125474;28;20029;-46
2022/04/22 13:33:04;;;;;;;11.90;6.57;;;25.70;95.20;;;;;;5125509;28;20043;-49
2022/04/22 13:35:31;;;;;;;11.98;6.75;;;25.70;95.30;;;;;;5125546;28;20076;-49
2022/04/22 13:37:57;;;;;;;11.45;6.75;;;25.70;95.30;;;;;;5115764;28;20197;-51
2022/04/22 13:40:26;;;;;;;13.63;6.95;;;25.70;95.20;;;;;;5106263;28;20035;-55
2022/04/22 13:42:53;;;;;;;16.77;6.50;;;25.80;95.20;;;;;;5125101;28;20026;-47
2022/04/22 13:53:35;;;;;;;13.90;6.30;;;25.80;94.90;;;;;;5125435;28;20026;-53
2022/04/22 13:56:01;;;;;;;12.45;5.93;;;25.80;94.80;;;;;;5124798;28;20106;-53
2022/04/22 13:58:32;;;;;;;12.90;6.03;;;25.90;94.70;;;;;;5124872;28;20019;-50
2022/04/22 14:00:59;;;;;;;13.23;6.15;;;25.90;94.70;;;;;;5124825;28;20047;-49